sensor_id;sensor_type;location;lat;lon;timestamp;P1;durP1;ratioP1;P2;durP2;ratioP2
1699;SDS011;847;48.058;7.810;2023-02-16T00:00:46;42.05;;;27.20;;
1699;SDS011;847;48.058;7.810;2023-02-16T00:03:15;39.10;;;27.15;;
1699;SDS011;847;48.058;7.810;2023-02-16T00:05:46;43.75;;;28.33;;
1699;SDS011;847;48.058;7.810;2023-02-16T00:08:14;41.95;;;27.65;;
1699;SDS011;847;48.058;7.810;2023-02-16T00:10:44;36.00;;;24.80;;
1699;SDS011;847;48.058;7.810;2023-02-16T00:13:29;41.90;;;26.80;;
1699;SDS011;847;48.058;7.810;2023-02-16T00:16:13;38.15;;;24.65;;
1699;SDS011;847;48.058;7.810;2023-02-16T00:18:44;34.38;;;24.00;;
1699;SDS011;847;48.058;7.810;2023-02-16T00:21:13;43.97;;;25.73;;
1699;SDS011;847;48.058;7.810;2023-02-16T00:23:41;41.65;;;26.10;;
1699;SDS011;847;48.058;7.810;2023-02-16T00:26:12;56.28;;;35.40;;
1699;SDS011;847;48.058;7.810;2023-02-16T00:28:42;43.67;;;30.17;;
1699;SDS011;847;48.058;7.810;2023-02-16T00:31:14;36.57;;;25.57;;
1699;SDS011;847;48.058;7.810;2023-02-16T00:33:44;37.47;;;25.00;;
1699;SDS011;847;48.058;7.810;2023-02-16T00:36:13;38.05;;;25.88;;
1699;SDS011;847;48.058;7.810;2023-02-16T00:38:42;31.48;;;22.08;;
1699;SDS011;847;48.058;7.810;2023-02-16T00:41:16;37.17;;;23.70;;
1699;SDS011;847;48.058;7.810;2023-02-16T00:59:36;36.58;;;22.48;;
1699;SDS011;847;48.058;7.810;2023-02-16T01:02:03;34.70;;;22.20;;
1699;SDS011;847;48.058;7.810;2023-02-16T01:04:30;31.90;;;22.17;;
1699;SDS011;847;48.058;7.810;2023-02-16T01:06:57;30.67;;;20.40;;
1699;SDS011;847;48.058;7.810;2023-02-16T01:09:43;32.53;;;20.35;;
1699;SDS011;847;48.058;7.810;2023-02-16T01:12:28;29.45;;;19.63;;
1699;SDS011;847;48.058;7.810;2023-02-16T01:14:58;32.65;;;21.58;;
1699;SDS011;847;48.058;7.810;2023-02-16T01:17:26;32.13;;;20.60;;
1699;SDS011;847;48.058;7.810;2023-02-16T01:19:53;32.40;;;21.52;;
1699;SDS011;847;48.058;7.810;2023-02-16T01:22:20;35.45;;;20.65;;
1699;SDS011;847;48.058;7.810;2023-02-16T01:24:48;31.05;;;21.00;;
1699;SDS011;847;48.058;7.810;2023-02-16T01:27:15;32.78;;;21.77;;
1699;SDS011;847;48.058;7.810;2023-02-16T01:29:43;32.50;;;21.37;;
1699;SDS011;847;48.058;7.810;2023-02-16T01:32:12;30.83;;;21.33;;
1699;SDS011;847;48.058;7.810;2023-02-16T01:34:40;35.65;;;21.60;;
1699;SDS011;847;48.058;7.810;2023-02-16T01:37:10;33.10;;;22.65;;
1699;SDS011;847;48.058;7.810;2023-02-16T01:39:40;38.08;;;23.55;;
1699;SDS011;847;48.058;7.810;2023-02-16T01:42:11;33.67;;;22.25;;
1699;SDS011;847;48.058;7.810;2023-02-16T01:44:50;32.10;;;21.58;;
1699;SDS011;847;48.058;7.810;2023-02-16T01:47:28;31.77;;;21.30;;
1699;SDS011;847;48.058;7.810;2023-02-16T01:50:06;31.58;;;22.17;;
1699;SDS011;847;48.058;7.810;2023-02-16T01:52:56;32.55;;;22.17;;
1699;SDS011;847;48.058;7.810;2023-02-16T01:55:30;28.67;;;20.60;;
1699;SDS011;847;48.058;7.810;2023-02-16T01:58:04;28.88;;;20.30;;
1699;SDS011;847;48.058;7.810;2023-02-16T02:03:41;32.30;;;22.00;;
1699;SDS011;847;48.058;7.810;2023-02-16T02:06:26;30.92;;;20.17;;
1699;SDS011;847;48.058;7.810;2023-02-16T02:16:54;29.07;;;20.67;;
1699;SDS011;847;48.058;7.810;2023-02-16T02:27:51;30.02;;;20.80;;
1699;SDS011;847;48.058;7.810;2023-02-16T02:30:29;26.58;;;20.73;;
1699;SDS011;847;48.058;7.810;2023-02-16T02:33:32;27.73;;;17.92;;
1699;SDS011;847;48.058;7.810;2023-02-16T02:36:11;27.33;;;18.20;;
1699;SDS011;847;48.058;7.810;2023-02-16T02:38:47;27.43;;;19.53;;
1699;SDS011;847;48.058;7.810;2023-02-16T02:41:22;25.95;;;17.98;;
1699;SDS011;847;48.058;7.810;2023-02-16T02:44:18;24.33;;;18.70;;
1699;SDS011;847;48.058;7.810;2023-02-16T02:46:52;30.38;;;17.98;;
1699;SDS011;847;48.058;7.810;2023-02-16T02:49:22;26.45;;;18.17;;
1699;SDS011;847;48.058;7.810;2023-02-16T02:51:50;27.75;;;18.85;;
1699;SDS011;847;48.058;7.810;2023-02-16T02:54:20;26.92;;;18.73;;
1699;SDS011;847;48.058;7.810;2023-02-16T02:57:12;27.38;;;18.58;;
1699;SDS011;847;48.058;7.810;2023-02-16T03:00:08;31.33;;;18.25;;
1699;SDS011;847;48.058;7.810;2023-02-16T03:02:57;24.05;;;17.30;;
1699;SDS011;847;48.058;7.810;2023-02-16T03:05:28;29.42;;;17.50;;
1699;SDS011;847;48.058;7.810;2023-02-16T03:15:49;23.58;;;15.75;;
1699;SDS011;847;48.058;7.810;2023-02-16T03:18:25;22.65;;;16.73;;
1699;SDS011;847;48.058;7.810;2023-02-16T03:21:12;23.52;;;16.52;;
1699;SDS011;847;48.058;7.810;2023-02-16T03:23:58;26.13;;;17.50;;
1699;SDS011;847;48.058;7.810;2023-02-16T03:26:46;30.08;;;17.00;;
1699;SDS011;847;48.058;7.810;2023-02-16T03:29:32;26.05;;;17.17;;
1699;SDS011;847;48.058;7.810;2023-02-16T03:32:06;26.10;;;17.55;;
1699;SDS011;847;48.058;7.810;2023-02-16T03:34:36;24.80;;;15.60;;
1699;SDS011;847;48.058;7.810;2023-02-16T03:37:05;22.90;;;16.85;;
1699;SDS011;847;48.058;7.810;2023-02-16T03:39:34;22.75;;;16.02;;
1699;SDS011;847;48.058;7.810;2023-02-16T03:42:22;24.80;;;15.68;;
1699;SDS011;847;48.058;7.810;2023-02-16T03:44:51;23.27;;;15.32;;
1699;SDS011;847;48.058;7.810;2023-02-16T03:47:20;23.02;;;14.27;;
1699;SDS011;847;48.058;7.810;2023-02-16T03:49:48;23.08;;;16.05;;
1699;SDS011;847;48.058;7.810;2023-02-16T03:52:15;21.88;;;15.45;;
1699;SDS011;847;48.058;7.810;2023-02-16T03:54:43;28.23;;;16.55;;
1699;SDS011;847;48.058;7.810;2023-02-16T03:57:11;23.05;;;16.58;;
1699;SDS011;847;48.058;7.810;2023-02-16T03:59:41;26.40;;;17.73;;
1699;SDS011;847;48.058;7.810;2023-02-16T04:02:08;25.30;;;18.17;;
1699;SDS011;847;48.058;7.810;2023-02-16T04:04:39;24.05;;;16.60;;
1699;SDS011;847;48.058;7.810;2023-02-16T04:07:08;21.60;;;16.00;;
1699;SDS011;847;48.058;7.810;2023-02-16T04:09:35;21.75;;;15.25;;
1699;SDS011;847;48.058;7.810;2023-02-16T04:12:04;22.58;;;15.52;;
1699;SDS011;847;48.058;7.810;2023-02-16T04:14:51;18.95;;;14.75;;
1699;SDS011;847;48.058;7.810;2023-02-16T04:17:18;20.35;;;13.98;;
1699;SDS011;847;48.058;7.810;2023-02-16T04:19:47;21.02;;;14.73;;
1699;SDS011;847;48.058;7.810;2023-02-16T04:22:15;21.67;;;13.05;;
1699;SDS011;847;48.058;7.810;2023-02-16T04:35:08;16.75;;;11.35;;
1699;SDS011;847;48.058;7.810;2023-02-16T04:37:37;14.32;;;11.13;;
1699;SDS011;847;48.058;7.810;2023-02-16T04:40:09;15.40;;;11.65;;
1699;SDS011;847;48.058;7.810;2023-02-16T04:42:42;15.40;;;12.10;;
1699;SDS011;847;48.058;7.810;2023-02-16T04:45:11;18.30;;;12.35;;
1699;SDS011;847;48.058;7.810;2023-02-16T04:47:39;18.00;;;12.07;;
1699;SDS011;847;48.058;7.810;2023-02-16T04:50:11;18.50;;;11.38;;
1699;SDS011;847;48.058;7.810;2023-02-16T04:52:48;15.43;;;11.70;;
1699;SDS011;847;48.058;7.810;2023-02-16T04:55:15;15.85;;;13.25;;
1699;SDS011;847;48.058;7.810;2023-02-16T04:57:42;22.90;;;12.77;;
1699;SDS011;847;48.058;7.810;2023-02-16T05:00:12;17.42;;;13.48;;
1699;SDS011;847;48.058;7.810;2023-02-16T05:02:40;15.43;;;11.93;;
1699;SDS011;847;48.058;7.810;2023-02-16T05:05:07;19.75;;;13.05;;
1699;SDS011;847;48.058;7.810;2023-02-16T05:07:36;19.63;;;13.98;;
1699;SDS011;847;48.058;7.810;2023-02-16T05:10:03;21.73;;;13.63;;
1699;SDS011;847;48.058;7.810;2023-02-16T05:12:31;18.00;;;13.57;;
1699;SDS011;847;48.058;7.810;2023-02-16T05:15:16;26.23;;;15.15;;
1699;SDS011;847;48.058;7.810;2023-02-16T05:17:44;17.83;;;13.18;;
1699;SDS011;847;48.058;7.810;2023-02-16T05:20:13;16.65;;;13.38;;
1699;SDS011;847;48.058;7.810;2023-02-16T05:22:41;15.55;;;12.30;;
1699;SDS011;847;48.058;7.810;2023-02-16T05:25:10;17.02;;;14.10;;
1699;SDS011;847;48.058;7.810;2023-02-16T05:27:37;19.85;;;14.35;;
1699;SDS011;847;48.058;7.810;2023-02-16T05:30:05;17.98;;;13.35;;
1699;SDS011;847;48.058;7.810;2023-02-16T05:32:33;18.05;;;13.10;;
1699;SDS011;847;48.058;7.810;2023-02-16T05:35:01;18.48;;;13.52;;
1699;SDS011;847;48.058;7.810;2023-02-16T05:37:30;17.08;;;11.75;;
1699;SDS011;847;48.058;7.810;2023-02-16T05:40:00;17.20;;;13.93;;
1699;SDS011;847;48.058;7.810;2023-02-16T05:42:28;17.20;;;12.95;;
1699;SDS011;847;48.058;7.810;2023-02-16T05:44:56;22.05;;;14.43;;
1699;SDS011;847;48.058;7.810;2023-02-16T05:47:23;17.55;;;13.98;;
1699;SDS011;847;48.058;7.810;2023-02-16T05:49:52;19.40;;;14.30;;
1699;SDS011;847;48.058;7.810;2023-02-16T05:52:24;18.58;;;14.25;;
1699;SDS011;847;48.058;7.810;2023-02-16T05:54:56;21.00;;;14.57;;
1699;SDS011;847;48.058;7.810;2023-02-16T05:57:27;19.90;;;14.65;;
1699;SDS011;847;48.058;7.810;2023-02-16T05:59:58;17.50;;;14.07;;
1699;SDS011;847;48.058;7.810;2023-02-16T06:02:28;18.77;;;13.75;;
1699;SDS011;847;48.058;7.810;2023-02-16T06:04:58;18.88;;;14.25;;
1699;SDS011;847;48.058;7.810;2023-02-16T06:07:25;17.50;;;13.25;;
1699;SDS011;847;48.058;7.810;2023-02-16T06:09:53;16.90;;;12.30;;
1699;SDS011;847;48.058;7.810;2023-02-16T06:12:20;15.93;;;12.55;;
1699;SDS011;847;48.058;7.810;2023-02-16T06:14:50;17.30;;;13.40;;
1699;SDS011;847;48.058;7.810;2023-02-16T06:17:22;18.20;;;12.70;;
1699;SDS011;847;48.058;7.810;2023-02-16T06:19:49;18.15;;;12.82;;
1699;SDS011;847;48.058;7.810;2023-02-16T06:22:17;20.77;;;13.15;;
1699;SDS011;847;48.058;7.810;2023-02-16T06:24:43;20.80;;;13.68;;
1699;SDS011;847;48.058;7.810;2023-02-16T06:27:10;19.08;;;12.10;;
1699;SDS011;847;48.058;7.810;2023-02-16T06:29:37;16.75;;;12.85;;
1699;SDS011;847;48.058;7.810;2023-02-16T06:32:06;16.88;;;12.15;;
1699;SDS011;847;48.058;7.810;2023-02-16T06:34:33;19.27;;;13.38;;
1699;SDS011;847;48.058;7.810;2023-02-16T06:37:00;18.75;;;13.13;;
1699;SDS011;847;48.058;7.810;2023-02-16T06:39:29;17.00;;;11.85;;
1699;SDS011;847;48.058;7.810;2023-02-16T06:41:56;17.05;;;12.00;;
1699;SDS011;847;48.058;7.810;2023-02-16T06:44:23;14.70;;;10.70;;
1699;SDS011;847;48.058;7.810;2023-02-16T07:15:32;17.38;;;12.02;;
1699;SDS011;847;48.058;7.810;2023-02-16T07:20:39;20.20;;;11.20;;
1699;SDS011;847;48.058;7.810;2023-02-16T07:25:42;20.60;;;12.57;;
1699;SDS011;847;48.058;7.810;2023-02-16T07:30:46;17.30;;;12.02;;
1699;SDS011;847;48.058;7.810;2023-02-16T07:43:36;20.65;;;14.60;;
1699;SDS011;847;48.058;7.810;2023-02-16T07:48:39;21.20;;;14.65;;
1699;SDS011;847;48.058;7.810;2023-02-16T07:51:07;24.20;;;14.50;;
1699;SDS011;847;48.058;7.810;2023-02-16T07:53:34;21.67;;;14.30;;
1699;SDS011;847;48.058;7.810;2023-02-16T07:56:01;19.08;;;14.57;;
1699;SDS011;847;48.058;7.810;2023-02-16T07:58:28;24.23;;;16.65;;
1699;SDS011;847;48.058;7.810;2023-02-16T08:00:59;18.90;;;16.02;;
1699;SDS011;847;48.058;7.810;2023-02-16T08:03:32;19.30;;;14.73;;
1699;SDS011;847;48.058;7.810;2023-02-16T08:11:12;19.07;;;13.60;;
1699;SDS011;847;48.058;7.810;2023-02-16T08:13:40;19.85;;;13.88;;
1699;SDS011;847;48.058;7.810;2023-02-16T08:16:08;21.23;;;12.80;;
1699;SDS011;847;48.058;7.810;2023-02-16T08:18:35;19.05;;;11.82;;
1699;SDS011;847;48.058;7.810;2023-02-16T08:21:06;20.05;;;13.48;;
1699;SDS011;847;48.058;7.810;2023-02-16T08:23:38;17.23;;;13.63;;
1699;SDS011;847;48.058;7.810;2023-02-16T08:26:06;21.67;;;13.68;;
1699;SDS011;847;48.058;7.810;2023-02-16T08:28:36;18.65;;;13.27;;
1699;SDS011;847;48.058;7.810;2023-02-16T08:31:03;19.27;;;15.10;;
1699;SDS011;847;48.058;7.810;2023-02-16T08:33:31;17.77;;;12.07;;
1699;SDS011;847;48.058;7.810;2023-02-16T08:35:58;24.38;;;12.80;;
1699;SDS011;847;48.058;7.810;2023-02-16T08:38:27;17.88;;;11.73;;
1699;SDS011;847;48.058;7.810;2023-02-16T08:40:56;17.67;;;11.53;;
1699;SDS011;847;48.058;7.810;2023-02-16T08:43:23;17.20;;;12.20;;
1699;SDS011;847;48.058;7.810;2023-02-16T08:45:52;15.20;;;11.60;;
1699;SDS011;847;48.058;7.810;2023-02-16T08:48:19;15.60;;;12.20;;
1699;SDS011;847;48.058;7.810;2023-02-16T08:50:47;17.00;;;15.00;;
1699;SDS011;847;48.058;7.810;2023-02-16T08:58:28;17.70;;;11.57;;
1699;SDS011;847;48.058;7.810;2023-02-16T09:00:57;15.23;;;11.57;;
1699;SDS011;847;48.058;7.810;2023-02-16T09:03:28;15.27;;;10.77;;
1699;SDS011;847;48.058;7.810;2023-02-16T09:05:56;12.20;;;10.10;;
1699;SDS011;847;48.058;7.810;2023-02-16T09:08:27;12.93;;;9.83;;
1699;SDS011;847;48.058;7.810;2023-02-16T09:10:55;12.97;;;10.23;;
1699;SDS011;847;48.058;7.810;2023-02-16T09:13:26;11.87;;;9.00;;
1699;SDS011;847;48.058;7.810;2023-02-16T09:15:53;15.77;;;11.70;;
1699;SDS011;847;48.058;7.810;2023-02-16T09:18:22;14.40;;;11.27;;
1699;SDS011;847;48.058;7.810;2023-02-16T09:20:49;17.40;;;11.77;;
1699;SDS011;847;48.058;7.810;2023-02-16T09:23:16;12.37;;;11.00;;
1699;SDS011;847;48.058;7.810;2023-02-16T09:25:43;16.63;;;11.63;;
1699;SDS011;847;48.058;7.810;2023-02-16T09:28:10;17.43;;;11.73;;
1699;SDS011;847;48.058;7.810;2023-02-16T09:30:38;16.03;;;13.07;;
1699;SDS011;847;48.058;7.810;2023-02-16T09:33:08;15.50;;;12.20;;
1699;SDS011;847;48.058;7.810;2023-02-16T09:35:38;27.27;;;13.63;;
1699;SDS011;847;48.058;7.810;2023-02-16T09:38:05;17.43;;;13.30;;
1699;SDS011;847;48.058;7.810;2023-02-16T09:40:32;20.17;;;14.37;;
1699;SDS011;847;48.058;7.810;2023-02-16T09:43:03;19.93;;;13.90;;
1699;SDS011;847;48.058;7.810;2023-02-16T09:45:37;19.97;;;15.33;;
1699;SDS011;847;48.058;7.810;2023-02-16T09:48:08;24.03;;;15.70;;
1699;SDS011;847;48.058;7.810;2023-02-16T09:50:47;62.40;;;21.03;;
1699;SDS011;847;48.058;7.810;2023-02-16T09:53:18;32.50;;;18.50;;
1699;SDS011;847;48.058;7.810;2023-02-16T09:55:51;18.60;;;12.67;;
1699;SDS011;847;48.058;7.810;2023-02-16T09:58:32;16.33;;;11.57;;
1699;SDS011;847;48.058;7.810;2023-02-16T10:01:05;17.50;;;11.47;;
1699;SDS011;847;48.058;7.810;2023-02-16T10:03:42;14.77;;;10.40;;
1699;SDS011;847;48.058;7.810;2023-02-16T10:06:25;21.73;;;11.77;;
1699;SDS011;847;48.058;7.810;2023-02-16T10:09:01;22.33;;;12.10;;
1699;SDS011;847;48.058;7.810;2023-02-16T10:11:32;11.90;;;9.80;;
1699;SDS011;847;48.058;7.810;2023-02-16T10:14:06;17.40;;;11.63;;
1699;SDS011;847;48.058;7.810;2023-02-16T10:16:39;81.07;;;41.50;;
1699;SDS011;847;48.058;7.810;2023-02-16T10:19:14;19.73;;;13.10;;
1699;SDS011;847;48.058;7.810;2023-02-16T10:21:48;15.37;;;10.37;;
1699;SDS011;847;48.058;7.810;2023-02-16T10:24:20;13.77;;;10.00;;
1699;SDS011;847;48.058;7.810;2023-02-16T10:26:54;12.67;;;7.47;;
1699;SDS011;847;48.058;7.810;2023-02-16T10:29:27;11.00;;;8.27;;
1699;SDS011;847;48.058;7.810;2023-02-16T10:31:57;13.03;;;7.57;;
1699;SDS011;847;48.058;7.810;2023-02-16T10:34:37;12.33;;;8.10;;
1699;SDS011;847;48.058;7.810;2023-02-16T10:37:24;10.73;;;7.00;;
1699;SDS011;847;48.058;7.810;2023-02-16T10:40:07;10.27;;;7.00;;
1699;SDS011;847;48.058;7.810;2023-02-16T10:42:51;8.10;;;5.90;;
1699;SDS011;847;48.058;7.810;2023-02-16T10:45:23;11.23;;;6.93;;
1699;SDS011;847;48.058;7.810;2023-02-16T10:47:56;11.20;;;7.50;;
1699;SDS011;847;48.058;7.810;2023-02-16T10:50:25;11.40;;;7.20;;
1699;SDS011;847;48.058;7.810;2023-02-16T10:52:59;9.63;;;6.73;;
1699;SDS011;847;48.058;7.810;2023-02-16T10:55:31;9.83;;;6.23;;
1699;SDS011;847;48.058;7.810;2023-02-16T10:58:02;10.83;;;6.80;;
1699;SDS011;847;48.058;7.810;2023-02-16T11:00:45;9.60;;;6.37;;
1699;SDS011;847;48.058;7.810;2023-02-16T11:03:16;11.00;;;7.00;;
1699;SDS011;847;48.058;7.810;2023-02-16T11:05:48;13.07;;;6.53;;
1699;SDS011;847;48.058;7.810;2023-02-16T11:08:16;7.60;;;6.20;;
1699;SDS011;847;48.058;7.810;2023-02-16T11:10:43;9.80;;;6.67;;
1699;SDS011;847;48.058;7.810;2023-02-16T11:13:26;9.67;;;5.93;;
1699;SDS011;847;48.058;7.810;2023-02-16T11:15:56;7.87;;;5.90;;
1699;SDS011;847;48.058;7.810;2023-02-16T11:18:28;9.57;;;6.23;;
1699;SDS011;847;48.058;7.810;2023-02-16T11:21:00;7.90;;;6.47;;
1699;SDS011;847;48.058;7.810;2023-02-16T11:23:31;7.67;;;5.90;;
1699;SDS011;847;48.058;7.810;2023-02-16T11:26:01;9.10;;;6.47;;
1699;SDS011;847;48.058;7.810;2023-02-16T11:28:30;10.87;;;6.53;;
1699;SDS011;847;48.058;7.810;2023-02-16T11:31:01;6.63;;;5.43;;
1699;SDS011;847;48.058;7.810;2023-02-16T11:33:35;9.07;;;5.80;;
1699;SDS011;847;48.058;7.810;2023-02-16T11:36:06;7.83;;;5.53;;
1699;SDS011;847;48.058;7.810;2023-02-16T11:38:58;10.30;;;6.00;;
1699;SDS011;847;48.058;7.810;2023-02-16T11:41:26;10.60;;;6.10;;
1699;SDS011;847;48.058;7.810;2023-02-16T11:43:57;7.80;;;5.53;;
1699;SDS011;847;48.058;7.810;2023-02-16T11:46:26;6.30;;;4.53;;
1699;SDS011;847;48.058;7.810;2023-02-16T11:48:54;6.50;;;4.97;;
1699;SDS011;847;48.058;7.810;2023-02-16T11:51:31;6.13;;;4.73;;
1699;SDS011;847;48.058;7.810;2023-02-16T11:54:03;7.13;;;5.20;;
1699;SDS011;847;48.058;7.810;2023-02-16T11:56:43;6.63;;;4.60;;
1699;SDS011;847;48.058;7.810;2023-02-16T11:59:25;7.17;;;4.57;;
1699;SDS011;847;48.058;7.810;2023-02-16T12:05:07;7.77;;;5.40;;
1699;SDS011;847;48.058;7.810;2023-02-16T12:07:44;6.23;;;4.53;;
1699;SDS011;847;48.058;7.810;2023-02-16T12:10:27;9.53;;;4.77;;
1699;SDS011;847;48.058;7.810;2023-02-16T12:13:03;11.33;;;4.43;;
1699;SDS011;847;48.058;7.810;2023-02-16T12:15:40;5.93;;;4.23;;
1699;SDS011;847;48.058;7.810;2023-02-16T12:18:15;8.63;;;5.70;;
1699;SDS011;847;48.058;7.810;2023-02-16T12:20:53;4.63;;;4.17;;
1699;SDS011;847;48.058;7.810;2023-02-16T12:23:30;5.83;;;4.00;;
1699;SDS011;847;48.058;7.810;2023-02-16T12:26:10;5.73;;;4.10;;
1699;SDS011;847;48.058;7.810;2023-02-16T12:29:05;7.13;;;4.30;;
1699;SDS011;847;48.058;7.810;2023-02-16T12:31:48;8.83;;;4.73;;
1699;SDS011;847;48.058;7.810;2023-02-16T12:34:27;6.53;;;4.37;;
1699;SDS011;847;48.058;7.810;2023-02-16T12:37:01;6.53;;;4.83;;
1699;SDS011;847;48.058;7.810;2023-02-16T12:39:34;8.07;;;4.80;;
1699;SDS011;847;48.058;7.810;2023-02-16T12:42:19;6.80;;;4.30;;
1699;SDS011;847;48.058;7.810;2023-02-16T12:44:58;6.30;;;4.50;;
1699;SDS011;847;48.058;7.810;2023-02-16T12:47:31;8.37;;;4.37;;
1699;SDS011;847;48.058;7.810;2023-02-16T12:50:02;6.50;;;4.50;;
1699;SDS011;847;48.058;7.810;2023-02-16T12:52:33;8.40;;;3.90;;
1699;SDS011;847;48.058;7.810;2023-02-16T12:55:14;4.20;;;3.80;;
1699;SDS011;847;48.058;7.810;2023-02-16T12:57:49;6.20;;;4.20;;
1699;SDS011;847;48.058;7.810;2023-02-16T13:00:23;4.17;;;3.77;;
1699;SDS011;847;48.058;7.810;2023-02-16T13:02:58;7.60;;;4.20;;
1699;SDS011;847;48.058;7.810;2023-02-16T13:05:36;8.90;;;4.97;;
1699;SDS011;847;48.058;7.810;2023-02-16T13:08:07;6.27;;;4.80;;
1699;SDS011;847;48.058;7.810;2023-02-16T13:10:55;5.10;;;3.87;;
1699;SDS011;847;48.058;7.810;2023-02-16T13:13:31;5.40;;;4.30;;
1699;SDS011;847;48.058;7.810;2023-02-16T13:16:02;6.83;;;4.33;;
1699;SDS011;847;48.058;7.810;2023-02-16T13:18:35;6.60;;;4.43;;
1699;SDS011;847;48.058;7.810;2023-02-16T13:21:07;5.70;;;4.80;;
1699;SDS011;847;48.058;7.810;2023-02-16T13:23:41;5.03;;;4.00;;
1699;SDS011;847;48.058;7.810;2023-02-16T13:26:34;8.03;;;4.50;;
1699;SDS011;847;48.058;7.810;2023-02-16T13:35:19;5.10;;;4.57;;
1699;SDS011;847;48.058;7.810;2023-02-16T13:38:04;7.60;;;5.17;;
1699;SDS011;847;48.058;7.810;2023-02-16T13:40:55;11.87;;;5.60;;
1699;SDS011;847;48.058;7.810;2023-02-16T13:43:34;16.17;;;10.00;;
1699;SDS011;847;48.058;7.810;2023-02-16T13:53:07;6.67;;;5.63;;
1699;SDS011;847;48.058;7.810;2023-02-16T13:55:38;6.53;;;4.87;;
1699;SDS011;847;48.058;7.810;2023-02-16T13:58:34;5.70;;;4.60;;
1699;SDS011;847;48.058;7.810;2023-02-16T14:01:52;7.23;;;5.07;;
1699;SDS011;847;48.058;7.810;2023-02-16T14:10:55;8.13;;;5.30;;
1699;SDS011;847;48.058;7.810;2023-02-16T14:13:26;10.33;;;5.97;;
1699;SDS011;847;48.058;7.810;2023-02-16T14:15:55;6.83;;;5.07;;
1699;SDS011;847;48.058;7.810;2023-02-16T14:18:28;8.37;;;6.20;;
1699;SDS011;847;48.058;7.810;2023-02-16T14:21:01;8.60;;;6.93;;
1699;SDS011;847;48.058;7.810;2023-02-16T14:23:32;10.17;;;7.23;;
1699;SDS011;847;48.058;7.810;2023-02-16T14:26:00;12.13;;;7.90;;
1699;SDS011;847;48.058;7.810;2023-02-16T14:31:14;10.27;;;6.90;;
1699;SDS011;847;48.058;7.810;2023-02-16T14:33:47;10.67;;;8.63;;
1699;SDS011;847;48.058;7.810;2023-02-16T14:36:21;12.47;;;8.30;;
1699;SDS011;847;48.058;7.810;2023-02-16T14:38:53;8.80;;;6.30;;
1699;SDS011;847;48.058;7.810;2023-02-16T14:41:23;9.50;;;7.10;;
1699;SDS011;847;48.058;7.810;2023-02-16T14:43:53;11.47;;;7.40;;
1699;SDS011;847;48.058;7.810;2023-02-16T14:46:44;12.27;;;8.40;;
1699;SDS011;847;48.058;7.810;2023-02-16T14:49:21;12.10;;;8.13;;
1699;SDS011;847;48.058;7.810;2023-02-16T14:58:10;8.33;;;5.47;;
1699;SDS011;847;48.058;7.810;2023-02-16T15:00:48;10.30;;;5.60;;
1699;SDS011;847;48.058;7.810;2023-02-16T15:03:18;9.80;;;5.37;;
1699;SDS011;847;48.058;7.810;2023-02-16T15:05:50;7.20;;;5.33;;
1699;SDS011;847;48.058;7.810;2023-02-16T15:08:22;7.10;;;5.17;;
1699;SDS011;847;48.058;7.810;2023-02-16T15:10:59;8.80;;;5.80;;
1699;SDS011;847;48.058;7.810;2023-02-16T15:13:31;6.37;;;5.20;;
1699;SDS011;847;48.058;7.810;2023-02-16T15:15:59;7.20;;;5.90;;
1699;SDS011;847;48.058;7.810;2023-02-16T15:18:30;8.93;;;6.00;;
1699;SDS011;847;48.058;7.810;2023-02-16T15:21:02;7.60;;;5.63;;
1699;SDS011;847;48.058;7.810;2023-02-16T15:23:31;5.57;;;4.40;;
1699;SDS011;847;48.058;7.810;2023-02-16T15:26:00;13.90;;;9.37;;
1699;SDS011;847;48.058;7.810;2023-02-16T15:28:29;25.83;;;23.20;;
1699;SDS011;847;48.058;7.810;2023-02-16T15:31:00;15.20;;;12.77;;
1699;SDS011;847;48.058;7.810;2023-02-16T15:33:32;9.27;;;8.13;;
1699;SDS011;847;48.058;7.810;2023-02-16T15:36:02;13.07;;;9.07;;
1699;SDS011;847;48.058;7.810;2023-02-16T15:38:35;16.37;;;11.70;;
1699;SDS011;847;48.058;7.810;2023-02-16T15:43:48;27.00;;;19.57;;
1699;SDS011;847;48.058;7.810;2023-02-16T15:46:23;11.73;;;9.30;;
1699;SDS011;847;48.058;7.810;2023-02-16T15:55:15;6.00;;;5.40;;
1699;SDS011;847;48.058;7.810;2023-02-16T15:57:42;7.53;;;5.23;;
1699;SDS011;847;48.058;7.810;2023-02-16T16:00:14;6.30;;;4.20;;
1699;SDS011;847;48.058;7.810;2023-02-16T16:02:45;5.23;;;3.97;;
1699;SDS011;847;48.058;7.810;2023-02-16T16:05:19;7.07;;;4.30;;
1699;SDS011;847;48.058;7.810;2023-02-16T16:07:47;6.07;;;5.03;;
1699;SDS011;847;48.058;7.810;2023-02-16T16:10:15;5.90;;;4.83;;
1699;SDS011;847;48.058;7.810;2023-02-16T16:12:46;6.43;;;5.33;;
1699;SDS011;847;48.058;7.810;2023-02-16T16:15:20;6.60;;;4.97;;
1699;SDS011;847;48.058;7.810;2023-02-16T16:17:49;7.90;;;5.60;;
1699;SDS011;847;48.058;7.810;2023-02-16T16:20:22;5.47;;;4.27;;
1699;SDS011;847;48.058;7.810;2023-02-16T16:22:56;8.20;;;6.23;;
1699;SDS011;847;48.058;7.810;2023-02-16T16:25:28;5.80;;;4.63;;
1699;SDS011;847;48.058;7.810;2023-02-16T16:28:05;11.07;;;7.37;;
1699;SDS011;847;48.058;7.810;2023-02-16T16:30:37;8.07;;;6.90;;
1699;SDS011;847;48.058;7.810;2023-02-16T16:33:08;9.87;;;7.77;;
1699;SDS011;847;48.058;7.810;2023-02-16T16:35:38;10.87;;;7.73;;
1699;SDS011;847;48.058;7.810;2023-02-16T16:38:19;12.77;;;9.90;;
1699;SDS011;847;48.058;7.810;2023-02-16T16:40:48;12.53;;;10.53;;
1699;SDS011;847;48.058;7.810;2023-02-16T16:43:16;12.20;;;10.40;;
1699;SDS011;847;48.058;7.810;2023-02-16T16:45:47;9.50;;;8.50;;
1699;SDS011;847;48.058;7.810;2023-02-16T16:48:17;9.73;;;7.40;;
1699;SDS011;847;48.058;7.810;2023-02-16T16:50:46;11.60;;;8.43;;
1699;SDS011;847;48.058;7.810;2023-02-16T16:56:18;6.87;;;5.70;;
1699;SDS011;847;48.058;7.810;2023-02-16T16:58:49;7.13;;;6.00;;
1699;SDS011;847;48.058;7.810;2023-02-16T17:01:17;10.70;;;9.10;;
1699;SDS011;847;48.058;7.810;2023-02-16T17:03:45;12.10;;;9.00;;
1699;SDS011;847;48.058;7.810;2023-02-16T17:06:13;13.10;;;8.43;;
1699;SDS011;847;48.058;7.810;2023-02-16T17:08:47;9.43;;;7.23;;
1699;SDS011;847;48.058;7.810;2023-02-16T17:11:36;7.67;;;6.30;;
1699;SDS011;847;48.058;7.810;2023-02-16T17:19:34;9.30;;;6.37;;
1699;SDS011;847;48.058;7.810;2023-02-16T17:22:05;7.97;;;6.90;;
1699;SDS011;847;48.058;7.810;2023-02-16T17:24:35;7.97;;;6.53;;
1699;SDS011;847;48.058;7.810;2023-02-16T17:27:02;7.13;;;6.20;;
1699;SDS011;847;48.058;7.810;2023-02-16T17:29:29;5.90;;;5.30;;
1699;SDS011;847;48.058;7.810;2023-02-16T17:31:57;6.20;;;5.13;;
1699;SDS011;847;48.058;7.810;2023-02-16T17:34:27;10.17;;;6.80;;
1699;SDS011;847;48.058;7.810;2023-02-16T17:36:56;7.73;;;5.53;;
1699;SDS011;847;48.058;7.810;2023-02-16T17:39:23;14.90;;;7.40;;
1699;SDS011;847;48.058;7.810;2023-02-16T17:41:50;6.93;;;5.83;;
1699;SDS011;847;48.058;7.810;2023-02-16T17:44:17;9.33;;;5.87;;
1699;SDS011;847;48.058;7.810;2023-02-16T17:46:44;9.80;;;7.60;;
1699;SDS011;847;48.058;7.810;2023-02-16T17:49:12;9.80;;;6.27;;
1699;SDS011;847;48.058;7.810;2023-02-16T17:51:39;9.37;;;7.80;;
1699;SDS011;847;48.058;7.810;2023-02-16T17:54:08;10.37;;;9.00;;
1699;SDS011;847;48.058;7.810;2023-02-16T17:56:35;10.83;;;9.10;;
1699;SDS011;847;48.058;7.810;2023-02-16T17:59:04;11.80;;;9.00;;
1699;SDS011;847;48.058;7.810;2023-02-16T18:01:34;9.80;;;8.80;;
1699;SDS011;847;48.058;7.810;2023-02-16T18:06:49;11.67;;;9.87;;
1699;SDS011;847;48.058;7.810;2023-02-16T18:12:07;22.60;;;13.97;;
1699;SDS011;847;48.058;7.810;2023-02-16T18:17:19;10.10;;;8.00;;
1699;SDS011;847;48.058;7.810;2023-02-16T18:19:46;10.53;;;7.83;;
1699;SDS011;847;48.058;7.810;2023-02-16T18:25:12;8.67;;;7.83;;
1699;SDS011;847;48.058;7.810;2023-02-16T18:33:00;7.03;;;5.77;;
1699;SDS011;847;48.058;7.810;2023-02-16T18:38:13;8.87;;;7.00;;
1699;SDS011;847;48.058;7.810;2023-02-16T18:41:18;10.93;;;7.60;;
1699;SDS011;847;48.058;7.810;2023-02-16T18:46:31;7.90;;;6.63;;
1699;SDS011;847;48.058;7.810;2023-02-16T18:49:37;9.03;;;7.30;;